createdAt,value
2016-05-18T00:00:11.088Z,20.25
2016-05-18T00:01:10.918Z,20.31
2016-05-18T00:02:10.890Z,20.3
2016-05-18T00:03:11.033Z,20.25
2016-05-18T00:04:11.020Z,20.33
2016-05-18T00:05:11.023Z,20.19
2016-05-18T00:06:11.010Z,20.19
2016-05-18T00:07:11.232Z,20.17
2016-05-18T00:08:10.984Z,20.26
2016-05-18T00:09:10.955Z,20.3
2016-05-18T00:10:10.943Z,20.22
2016-05-18T00:11:10.946Z,20.19
2016-05-18T00:12:10.932Z,20.25
2016-05-18T00:13:10.904Z,20.2
2016-05-18T00:14:10.751Z,20.27
2016-05-18T00:15:11.284Z,20.33
2016-05-18T00:16:10.709Z,20.3
2016-05-18T00:17:10.852Z,20.2
2016-05-18T00:18:10.840Z,20.22
2016-05-18T00:19:10.826Z,20.2
2016-05-18T00:20:10.813Z,20.2
2016-05-18T00:21:10.800Z,20.16
2016-05-18T00:22:10.787Z,20.2
2016-05-18T00:23:11.212Z,20.2
2016-05-18T00:24:10.777Z,20.22
2016-05-18T00:25:10.749Z,20.17
2016-05-18T00:26:10.736Z,20.23
2016-05-18T00:27:10.722Z,20.25
2016-05-18T00:28:10.709Z,20.17
2016-05-18T00:29:10.697Z,20.17
2016-05-18T00:30:10.684Z,20.2
2016-05-18T00:31:11.249Z,20.19
2016-05-18T00:32:10.675Z,20.33
2016-05-18T00:33:10.645Z,20.25
2016-05-18T00:34:10.475Z,20.25
2016-05-18T00:35:10.619Z,20.22
2016-05-18T00:36:10.606Z,20.19
2016-05-18T00:37:10.452Z,20.2
2016-05-18T00:38:10.612Z,20.16
2016-05-18T00:39:11.114Z,20.22
2016-05-18T00:40:10.570Z,20.22
2016-05-18T00:41:10.402Z,20.23
2016-05-18T00:42:10.529Z,20.16
2016-05-18T00:43:10.515Z,20.19
2016-05-18T00:44:10.503Z,20.2
2016-05-18T00:45:10.490Z,20.25
2016-05-18T00:46:10.477Z,20.19
2016-05-18T00:47:10.510Z,20.23
2016-05-18T00:48:10.295Z,20.27
2016-05-18T00:49:10.281Z,20.22
2016-05-18T00:50:10.410Z,20.2
2016-05-18T00:51:10.412Z,20.19
2016-05-18T00:52:10.384Z,20.16
2016-05-18T00:53:10.231Z,20.22
2016-05-18T00:54:10.373Z,20.27
2016-05-18T00:55:10.564Z,20.22
2016-05-18T00:56:10.331Z,20.23
2016-05-18T00:57:10.334Z,20.25
2016-05-18T00:58:10.322Z,20.23
2016-05-18T00:59:09.997Z,20.3
2016-05-18T01:00:10.295Z,20.22
2016-05-18T01:01:10.267Z,20.26
2016-05-18T01:02:10.270Z,20.19
2016-05-18T01:03:10.553Z,20.17
2016-05-18T01:04:10.228Z,20.27
2016-05-18T01:05:10.216Z,20.22
2016-05-18T01:06:10.203Z,20.22
2016-05-18T01:07:10.205Z,20.19
2016-05-18T01:08:10.755Z,20.15
2016-05-18T01:09:10.164Z,20.23
2016-05-18T01:10:10.166Z,20.16
2016-05-18T01:11:10.544Z,20.22
2016-05-18T01:12:10.140Z,20.19
2016-05-18T01:13:10.113Z,20.2
2016-05-18T01:14:10.115Z,20.16
2016-05-18T01:15:10.085Z,20.16
2016-05-18T01:16:09.932Z,20.2
2016-05-18T01:17:10.060Z,20.16
2016-05-18T01:18:10.204Z,20.22
2016-05-18T01:19:09.909Z,20.22
2016-05-18T01:20:10.022Z,20.19
2016-05-18T01:21:10.009Z,20.17
2016-05-18T01:22:09.996Z,20.2
2016-05-18T01:23:09.670Z,20.16
2016-05-18T01:24:09.969Z,20.23
2016-05-18T01:25:09.973Z,20.2
2016-05-18T01:26:10.225Z,20.17
2016-05-18T01:27:09.931Z,20.19
2016-05-18T01:28:09.934Z,20.2
2016-05-18T01:29:09.764Z,20.27
2016-05-18T01:30:09.751Z,20.25
2016-05-18T01:31:09.722Z,20.2
2016-05-18T01:32:09.711Z,20.22
2016-05-18T01:33:09.853Z,20.23
2016-05-18T01:34:10.184Z,20.13
2016-05-18T01:35:09.827Z,20.25
2016-05-18T01:36:09.814Z,20.17
2016-05-18T01:37:09.802Z,20.23
2016-05-18T01:38:09.882Z,20.17
2016-05-18T01:39:09.775Z,20.22
2016-05-18T01:40:09.763Z,20.2
2016-05-18T01:41:09.750Z,20.2
2016-05-18T01:42:10.237Z,20.2
2016-05-18T01:43:09.724Z,20.25
2016-05-18T01:44:09.711Z,20.22
2016-05-18T01:45:09.698Z,20.17
2016-05-18T01:46:09.701Z,20.22
2016-05-18T01:47:09.672Z,20.25
2016-05-18T01:48:09.660Z,20.2
2016-05-18T01:49:09.646Z,20.2
2016-05-18T01:50:10.071Z,20.12
2016-05-18T01:51:09.620Z,20.22
2016-05-18T01:52:09.623Z,20.2
2016-05-18T01:53:09.595Z,20.22
2016-05-18T01:54:09.425Z,20.22
2016-05-18T01:55:09.568Z,20.17
2016-05-18T01:56:09.556Z,20.17
2016-05-18T01:57:09.387Z,20.22
2016-05-18T01:58:10.233Z,20.16
2016-05-18T01:59:09.517Z,20.17
2016-05-18T02:00:09.348Z,20.13
2016-05-18T02:01:09.491Z,20.2
2016-05-18T02:02:09.479Z,20.13
2016-05-18T02:03:09.450Z,20.19
2016-05-18T02:04:09.452Z,20.15
2016-05-18T02:05:09.439Z,20.2
2016-05-18T02:06:09.473Z,20.16
2016-05-18T02:07:09.085Z,20.12
2016-05-18T02:08:09.494Z,20.2
2016-05-18T02:09:09.388Z,20.16
2016-05-18T02:10:09.358Z,20.15
2016-05-18T02:11:09.191Z,20.13
2016-05-18T02:12:09.349Z,20.2
2016-05-18T02:13:09.320Z,20.17
2016-05-18T02:14:10.308Z,20.17
2016-05-18T02:15:09.138Z,20.15
2016-05-18T02:16:09.282Z,20.17
2016-05-18T02:17:09.268Z,20.13
2016-05-18T02:18:09.255Z,20.17
2016-05-18T02:19:09.243Z,20.12
2016-05-18T02:20:09.229Z,20.22
2016-05-18T02:21:09.060Z,20.17
2016-05-18T02:22:09.360Z,20.17
2016-05-18T02:23:09.254Z,20.16
2016-05-18T02:24:09.178Z,20.17
2016-05-18T02:25:09.009Z,20.13
2016-05-18T02:26:09.152Z,20.13
2016-05-18T02:27:08.983Z,20.1
2016-05-18T02:28:09.142Z,20.17
2016-05-18T02:29:09.144Z,20.17
2016-05-18T02:30:09.554Z,20.07
2016-05-18T02:31:09.087Z,20.15
2016-05-18T02:32:09.090Z,20.1
2016-05-18T02:33:09.077Z,20.12
2016-05-18T02:34:09.048Z,20.2
2016-05-18T02:35:09.036Z,20.17
2016-05-18T02:36:09.023Z,20.1
2016-05-18T02:37:09.010Z,20.17
2016-05-18T02:38:09.216Z,20.1
2016-05-18T02:39:08.984Z,20.08
2016-05-18T02:40:08.814Z,20.16
2016-05-18T02:41:08.958Z,20.05
2016-05-18T02:42:08.977Z,20.1
2016-05-18T02:43:08.776Z,20.1
2016-05-18T02:44:08.919Z,20.07
2016-05-18T02:45:08.906Z,20.07
2016-05-18T02:46:08.894Z,20.16
2016-05-18T02:47:08.880Z,20.08
2016-05-18T02:48:08.883Z,20.1
2016-05-18T02:49:08.854Z,20.12
2016-05-18T02:50:08.842Z,20.12
2016-05-18T02:51:08.829Z,20.16
2016-05-18T02:52:08.659Z,20.17
2016-05-18T02:53:09.210Z,20.07
2016-05-18T02:54:08.790Z,20.15
2016-05-18T02:55:08.776Z,20.15
2016-05-18T02:56:08.779Z,20.15
2016-05-18T02:57:08.595Z,20.13
2016-05-18T02:58:08.738Z,20.08
2016-05-18T02:59:08.725Z,20.12
2016-05-18T03:00:08.540Z,20.16
2016-05-18T03:01:08.543Z,20.25
2016-05-18T03:02:08.686Z,20.22
2016-05-18T03:03:08.658Z,20.16
2016-05-18T03:04:08.661Z,20.16
2016-05-18T03:05:08.648Z,20.15
2016-05-18T03:06:08.634Z,20.2
2016-05-18T03:07:08.622Z,20.12
2016-05-18T03:08:08.718Z,20.19
2016-05-18T03:09:08.596Z,20.17
2016-05-18T03:10:08.583Z,20.04
2016-05-18T03:11:08.569Z,20.12
2016-05-18T03:12:08.542Z,20.12
2016-05-18T03:13:08.388Z,20.17
2016-05-18T03:14:08.515Z,20.12
2016-05-18T03:15:08.518Z,20.19
2016-05-18T03:16:08.349Z,20.13
2016-05-18T03:17:08.321Z,20.13
2016-05-18T03:18:08.479Z,20.17
2016-05-18T03:19:08.514Z,20.13
2016-05-18T03:20:08.438Z,20.12
2016-05-18T03:21:08.440Z,20.17
2016-05-18T03:22:08.427Z,20.19
2016-05-18T03:23:08.414Z,20.1
2016-05-18T03:24:08.496Z,20.1
2016-05-18T03:25:08.373Z,20.1
2016-05-18T03:26:08.360Z,20.08
2016-05-18T03:27:08.551Z,20.1
2016-05-18T03:28:08.193Z,20.15
2016-05-18T03:29:08.009Z,20.1
2016-05-18T03:30:08.168Z,20.07
2016-05-18T03:31:08.296Z,20.08
2016-05-18T03:32:08.283Z,20.1
2016-05-18T03:33:08.270Z,20.1
2016-05-18T03:34:08.256Z,20.07
2016-05-18T03:35:08.541Z,20.07
2016-05-18T03:36:08.247Z,20.07
2016-05-18T03:37:08.217Z,20.17
2016-05-18T03:38:08.221Z,20.1
2016-05-18T03:39:08.191Z,20.07
2016-05-18T03:40:08.194Z,20.05
2016-05-18T03:41:08.182Z,20.17
2016-05-18T03:42:08.169Z,20.15
2016-05-18T03:43:08.609Z,20.19
2016-05-18T03:44:08.141Z,20.15
2016-05-18T03:45:08.112Z,20.08
2016-05-18T03:46:08.099Z,20.07
2016-05-18T03:47:08.086Z,20.12
2016-05-18T03:48:08.074Z,20.15
2016-05-18T03:49:07.904Z,20.07
2016-05-18T03:50:07.907Z,20.17
2016-05-18T03:51:08.582Z,20.15
2016-05-18T03:52:08.021Z,20.15
2016-05-18T03:53:08.665Z,20.19
2016-05-18T03:54:07.995Z,20.08
2016-05-18T03:55:07.999Z,20.07
2016-05-18T03:56:07.970Z,20.2
2016-05-18T03:57:07.957Z,20.07
2016-05-18T03:58:07.788Z,20.22
2016-05-18T03:59:08.571Z,20.19
2016-05-18T04:00:07.902Z,20.15
2016-05-18T04:01:07.904Z,20.07
2016-05-18T04:02:07.892Z,20.19
2016-05-18T04:03:07.879Z,20.07
2016-05-18T04:04:07.867Z,20.1
2016-05-18T04:05:07.853Z,20.05
2016-05-18T04:06:07.856Z,20.15
2016-05-18T04:07:07.875Z,20.12
2016-05-18T04:08:07.814Z,20.16
2016-05-18T04:09:07.801Z,20.12
2016-05-18T04:10:07.789Z,20.08
2016-05-18T04:11:07.791Z,20.1
2016-05-18T04:12:07.606Z,20.12
2016-05-18T04:13:07.734Z,20.19
2016-05-18T04:14:07.753Z,20.1
2016-05-18T04:15:07.864Z,20.12
2016-05-18T04:16:07.695Z,20.12
2016-05-18T04:17:07.713Z,20.1
2016-05-18T04:18:07.529Z,20.17
2016-05-18T04:19:07.672Z,20.16
2016-05-18T04:20:07.659Z,20.12
2016-05-18T04:21:07.631Z,20.13
2016-05-18T04:22:07.618Z,20.1
2016-05-18T04:23:07.402Z,20.12
2016-05-18T04:24:07.591Z,20.1
2016-05-18T04:25:07.579Z,20.1
2016-05-18T04:26:07.582Z,20.13
2016-05-18T04:27:07.553Z,20.13
2016-05-18T04:28:07.541Z,20.13
2016-05-18T04:29:07.371Z,20.12
2016-05-18T04:30:07.514Z,20.12
2016-05-18T04:31:08.610Z,20.16
2016-05-18T04:32:07.487Z,20.15
2016-05-18T04:33:07.319Z,20.08
2016-05-18T04:34:07.322Z,20.12
2016-05-18T04:35:07.450Z,20.13
2016-05-18T04:36:07.437Z,20.13
2016-05-18T04:37:07.424Z,20.17
2016-05-18T04:38:07.833Z,20.2
2016-05-18T04:39:07.398Z,20.12
2016-05-18T04:40:07.385Z,20.08
2016-05-18T04:41:07.372Z,20.17
2016-05-18T04:42:07.359Z,20.1
2016-05-18T04:43:07.361Z,20.17
2016-05-18T04:44:07.333Z,20.07
2016-05-18T04:45:07.320Z,20.13
2016-05-18T04:46:07.355Z,20.17
2016-05-18T04:47:07.138Z,20.05
2016-05-18T04:48:07.281Z,20.07
2016-05-18T04:49:07.268Z,20.17
2016-05-18T04:50:07.255Z,20.01
2016-05-18T04:51:07.243Z,20.17
2016-05-18T04:52:07.230Z,20.07
2016-05-18T04:53:07.717Z,20.08
2016-05-18T04:54:07.563Z,20.16
2016-05-18T04:55:07.191Z,20.16
2016-05-18T04:56:07.162Z,20.17
2016-05-18T04:57:07.165Z,20.08
2016-05-18T04:58:06.995Z,20.07
2016-05-18T04:59:07.140Z,20.17
2016-05-18T05:00:07.126Z,20.07
2016-05-18T05:01:07.098Z,20.12
2016-05-18T05:02:07.538Z,19.95
2016-05-18T05:03:07.087Z,20.08
2016-05-18T05:04:07.074Z,20.15
2016-05-18T05:05:06.905Z,20.02
2016-05-18T05:06:07.048Z,20.12
2016-05-18T05:07:07.036Z,20.1
2016-05-18T05:08:07.006Z,20.17
2016-05-18T05:09:07.009Z,20.01
2016-05-18T05:10:07.545Z,20.12
2016-05-18T05:11:06.983Z,20.07
2016-05-18T05:12:06.814Z,20.07
2016-05-18T05:13:06.958Z,20.16
2016-05-18T05:14:06.930Z,20.02
2016-05-18T05:15:06.916Z,20.12
2016-05-18T05:16:06.747Z,20.16
2016-05-18T05:17:06.750Z,20.12
2016-05-18T05:18:07.581Z,20.08
2016-05-18T05:19:06.881Z,20.12
2016-05-18T05:20:06.852Z,19.95
2016-05-18T05:21:06.698Z,20.08
2016-05-18T05:22:06.826Z,20.07
2016-05-18T05:23:06.844Z,20.08
2016-05-18T05:24:06.800Z,19.95
2016-05-18T05:25:06.788Z,20.04
2016-05-18T05:26:07.587Z,19.94
2016-05-18T05:27:06.761Z,19.98
2016-05-18T05:28:06.607Z,19.97
2016-05-18T05:29:06.736Z,19.94
2016-05-18T05:30:06.723Z,19.94
2016-05-18T05:31:06.553Z,19.98
2016-05-18T05:32:06.696Z,19.94
2016-05-18T05:33:06.527Z,19.98
2016-05-18T05:34:06.827Z,19.94
2016-05-18T05:35:06.657Z,19.95
2016-05-18T05:36:06.489Z,20
2016-05-18T05:37:06.631Z,19.94
2016-05-18T05:38:06.823Z,19.95
2016-05-18T05:39:06.465Z,19.94
2016-05-18T05:40:06.593Z,19.95
2016-05-18T05:41:06.424Z,19.92
2016-05-18T05:42:06.661Z,20.01
2016-05-18T05:43:06.398Z,19.95
2016-05-18T05:44:06.228Z,19.9
2016-05-18T05:45:06.528Z,19.97
2016-05-18T05:46:06.516Z,20
2016-05-18T05:47:06.502Z,20.05
2016-05-18T05:48:06.489Z,20.08
2016-05-18T05:49:06.461Z,20.07
2016-05-18T05:50:06.869Z,20
2016-05-18T05:51:06.435Z,19.94
2016-05-18T05:52:06.282Z,20.05
2016-05-18T05:53:06.799Z,20.02
2016-05-18T05:54:06.396Z,19.97
2016-05-18T05:55:06.383Z,19.92
2016-05-18T05:56:06.386Z,19.94
2016-05-18T05:57:06.467Z,19.95
2016-05-18T05:58:06.361Z,19.98
2016-05-18T05:59:06.332Z,19.98
2016-05-18T06:00:06.178Z,19.98
2016-05-18T06:01:06.306Z,19.95
2016-05-18T06:02:06.293Z,20.02
2016-05-18T06:03:06.312Z,19.95
2016-05-18T06:04:06.282Z,19.92
2016-05-18T06:05:06.629Z,19.95
2016-05-18T06:06:06.241Z,19.94
2016-05-18T06:07:06.228Z,19.97
2016-05-18T06:08:06.231Z,19.97
2016-05-18T06:09:06.203Z,19.94
2016-05-18T06:10:06.189Z,19.97
2016-05-18T06:11:06.036Z,19.95
2016-05-18T06:12:06.179Z,19.89
2016-05-18T06:13:06.556Z,19.97
2016-05-18T06:14:06.137Z,19.95
2016-05-18T06:15:06.124Z,19.97
2016-05-18T06:16:06.111Z,19.94
2016-05-18T06:17:05.959Z,19.98
2016-05-18T06:18:06.086Z,19.97
2016-05-18T06:19:06.072Z,19.9
2016-05-18T06:20:05.903Z,19.95
2016-05-18T06:21:06.500Z,19.92
2016-05-18T06:22:06.019Z,19.94
2016-05-18T06:23:05.865Z,19.94
2016-05-18T06:24:06.008Z,19.95
2016-05-18T06:25:05.996Z,19.97
2016-05-18T06:26:05.982Z,19.94
2016-05-18T06:27:05.969Z,19.98
2016-05-18T06:28:05.832Z,19.98
2016-05-18T06:29:06.334Z,19.97
2016-05-18T06:30:05.930Z,19.97
2016-05-18T06:31:05.918Z,19.97
2016-05-18T06:32:05.904Z,19.94
2016-05-18T06:33:05.892Z,19.92
2016-05-18T06:34:05.879Z,20
2016-05-18T06:35:05.710Z,19.94
2016-05-18T06:36:05.869Z,19.95
2016-05-18T06:37:06.387Z,19.98
2016-05-18T06:38:06.093Z,20
2016-05-18T06:39:05.814Z,19.9
2016-05-18T06:40:05.801Z,19.95
2016-05-18T06:41:05.789Z,19.95
2016-05-18T06:42:05.760Z,19.97
2016-05-18T06:43:05.762Z,19.98
2016-05-18T06:44:05.733Z,19.95
2016-05-18T06:45:05.783Z,20.01
2016-05-18T06:46:05.723Z,19.92
2016-05-18T06:47:05.695Z,19.94
2016-05-18T06:48:05.682Z,19.92
2016-05-18T06:49:05.670Z,19.98
2016-05-18T06:50:05.516Z,19.87
2016-05-18T06:51:05.503Z,20.01
2016-05-18T06:52:05.647Z,19.92
2016-05-18T06:53:05.852Z,19.97
2016-05-18T06:54:05.620Z,19.92
2016-05-18T06:55:05.436Z,20.01
2016-05-18T06:56:05.422Z,19.95
2016-05-18T06:57:05.566Z,19.95
2016-05-18T06:58:05.553Z,19.94
2016-05-18T06:59:05.383Z,19.95
2016-05-18T07:00:05.527Z,19.97
2016-05-18T07:01:06.561Z,20.07
2016-05-18T07:02:05.516Z,19.98
2016-05-18T07:03:05.504Z,20.08
2016-05-18T07:04:05.476Z,19.97
2016-05-18T07:05:05.493Z,20.1
2016-05-18T07:06:05.449Z,20.07
2016-05-18T07:07:05.437Z,19.97
2016-05-18T07:08:05.454Z,19.95
2016-05-18T07:09:06.551Z,19.95
2016-05-18T07:10:05.398Z,20.01
2016-05-18T07:11:05.385Z,20.02
2016-05-18T07:12:05.372Z,19.98
2016-05-18T07:13:05.343Z,19.97
2016-05-18T07:14:05.345Z,19.97
2016-05-18T07:15:05.334Z,19.98
2016-05-18T07:16:05.164Z,19.98
2016-05-18T07:17:05.307Z,19.94
2016-05-18T07:18:05.138Z,20.02
2016-05-18T07:19:05.281Z,19.98
2016-05-18T07:20:05.269Z,19.95
2016-05-18T07:21:05.239Z,19.95
2016-05-18T07:22:05.227Z,20.01
2016-05-18T07:23:05.245Z,20.01
2016-05-18T07:24:05.216Z,20.1
2016-05-18T07:25:05.266Z,19.94
2016-05-18T07:26:05.019Z,20.04
2016-05-18T07:27:05.163Z,20.17
2016-05-18T07:28:05.149Z,20.25
2016-05-18T07:29:05.168Z,20.22
2016-05-18T07:30:05.124Z,20.25
2016-05-18T07:31:05.111Z,20.19
2016-05-18T07:32:05.130Z,20.17
2016-05-18T07:33:04.960Z,20.2
2016-05-18T07:34:05.087Z,20.19
2016-05-18T07:35:05.121Z,20.2
2016-05-18T07:36:04.905Z,20.19
2016-05-18T07:37:05.065Z,20.23
2016-05-18T07:38:05.160Z,20.22
2016-05-18T07:39:05.070Z,20.22
2016-05-18T07:40:05.103Z,20.19
2016-05-18T07:41:04.841Z,20.2
2016-05-18T07:42:05.124Z,20.2
2016-05-18T07:43:05.049Z,20.31
2016-05-18T07:44:04.848Z,20.23
2016-05-18T07:45:05.007Z,20.22
2016-05-18T07:46:05.073Z,20.35
2016-05-18T07:47:04.967Z,20.31
2016-05-18T07:48:04.750Z,20.31
2016-05-18T07:49:04.878Z,20.3
2016-05-18T07:50:04.864Z,20.27
2016-05-18T07:51:04.695Z,20.25
2016-05-18T07:52:04.839Z,20.27
2016-05-18T07:53:04.685Z,20.23
2016-05-18T07:54:04.828Z,20.31
2016-05-18T07:55:04.800Z,20.22
2016-05-18T07:56:04.787Z,20.35
2016-05-18T07:57:04.758Z,20.27
2016-05-18T07:58:04.824Z,20.3
2016-05-18T07:59:04.748Z,20.31
2016-05-18T08:00:04.736Z,20.27
2016-05-18T08:01:04.723Z,20.26
2016-05-18T08:02:04.569Z,20.26
2016-05-18T08:03:04.697Z,20.34
2016-05-18T08:04:04.668Z,20.27
2016-05-18T08:05:04.655Z,20.25
2016-05-18T08:06:04.861Z,20.33
2016-05-18T08:07:04.645Z,20.37
2016-05-18T08:08:04.491Z,20.31
2016-05-18T08:09:04.604Z,20.31
2016-05-18T08:10:04.435Z,20.34
2016-05-18T08:11:04.577Z,20.33
2016-05-18T08:12:04.565Z,20.35
2016-05-18T08:13:04.551Z,20.38
2016-05-18T08:14:04.835Z,20.3
2016-05-18T08:15:04.526Z,20.38
2016-05-18T08:16:04.356Z,20.31
2016-05-18T08:17:04.500Z,20.37
2016-05-18T08:18:04.502Z,20.38
2016-05-18T08:19:04.489Z,20.38
2016-05-18T08:20:04.476Z,20.46
2016-05-18T08:21:04.448Z,20.5
2016-05-18T08:22:04.889Z,20.44
2016-05-18T08:23:04.485Z,20.53
2016-05-18T08:24:04.409Z,20.57
2016-05-18T08:25:04.240Z,20.51
2016-05-18T08:26:04.384Z,20.46
2016-05-18T08:27:04.386Z,20.58
2016-05-18T08:28:04.368Z,20.61
2016-05-18T08:29:04.398Z,20.6
2016-05-18T08:30:04.989Z,20.48
2016-05-18T08:31:04.456Z,20.56
2016-05-18T08:32:04.501Z,20.53
2016-05-18T08:33:04.523Z,20.54
2016-05-18T08:34:04.354Z,20.48
2016-05-18T08:35:04.560Z,20.5
2016-05-18T08:36:04.593Z,20.61
2016-05-18T08:37:04.581Z,20.58
2016-05-18T08:38:05.643Z,20.51
2016-05-18T08:39:04.510Z,20.61
2016-05-18T08:40:04.534Z,20.54
2016-05-18T08:41:04.573Z,20.6
2016-05-18T08:42:04.581Z,20.51
2016-05-18T08:43:04.620Z,20.57
2016-05-18T08:44:04.531Z,20.48
2016-05-18T08:45:04.458Z,20.58
2016-05-18T08:46:04.494Z,20.51
2016-05-18T08:47:04.437Z,20.54
2016-05-18T08:48:04.425Z,20.6
2016-05-18T08:49:04.273Z,20.68
2016-05-18T08:50:04.417Z,20.57
2016-05-18T08:51:04.373Z,20.6
2016-05-18T08:52:04.377Z,20.57
2016-05-18T08:53:04.380Z,20.66
2016-05-18T08:54:04.492Z,20.69
2016-05-18T08:55:04.183Z,20.61
2016-05-18T08:56:04.186Z,20.64
2016-05-18T08:57:04.313Z,20.69
2016-05-18T08:58:04.300Z,20.63
2016-05-18T08:59:04.286Z,20.61
2016-05-18T09:00:04.274Z,20.76
2016-05-18T09:01:04.277Z,20.66
2016-05-18T09:02:04.498Z,20.71
2016-05-18T09:03:04.235Z,20.76
2016-05-18T09:04:04.222Z,20.75
2016-05-18T09:05:04.225Z,20.73
2016-05-18T09:06:04.196Z,20.72
2016-05-18T09:07:04.183Z,20.72
2016-05-18T09:08:04.170Z,20.76
2016-05-18T09:09:04.142Z,20.79
2016-05-18T09:10:04.488Z,20.75
2016-05-18T09:11:04.132Z,20.75
2016-05-18T09:12:04.118Z,20.76
2016-05-18T09:13:04.121Z,20.75
2016-05-18T09:14:04.077Z,20.71
2016-05-18T09:15:03.923Z,20.73
2016-05-18T09:16:04.067Z,20.68
2016-05-18T09:17:04.148Z,20.73
2016-05-18T09:18:04.526Z,20.78
2016-05-18T09:19:04.028Z,20.72
2016-05-18T09:20:04.015Z,20.76
2016-05-18T09:21:04.002Z,20.79
2016-05-18T09:22:03.989Z,20.64
2016-05-18T09:23:03.976Z,20.72
2016-05-18T09:24:03.964Z,20.73
2016-05-18T09:25:04.185Z,20.68
2016-05-18T09:26:03.922Z,20.78
2016-05-18T09:27:03.925Z,20.68
2016-05-18T09:28:03.911Z,20.76
2016-05-18T09:29:03.727Z,20.75
2016-05-18T09:30:03.713Z,20.75
2016-05-18T09:31:03.872Z,20.72
2016-05-18T09:32:03.844Z,20.78
2016-05-18T09:33:03.988Z,20.73
2016-05-18T09:34:03.677Z,20.85
2016-05-18T09:35:03.821Z,20.85
2016-05-18T09:36:03.793Z,20.85
2016-05-18T09:37:03.779Z,20.81
2016-05-18T09:38:03.798Z,20.81
2016-05-18T09:39:03.754Z,20.83
2016-05-18T09:40:03.741Z,20.73
2016-05-18T09:41:04.181Z,20.57
2016-05-18T09:42:03.574Z,20.56
2016-05-18T09:43:03.717Z,20.64
2016-05-18T09:44:03.532Z,20.63
2016-05-18T09:45:03.410Z,20.76
2016-05-18T09:46:03.507Z,20.79
2016-05-18T09:47:03.650Z,20.82
2016-05-18T09:48:03.637Z,20.78
2016-05-18T09:49:04.187Z,20.75
2016-05-18T09:50:03.611Z,20.87
2016-05-18T09:51:03.614Z,20.85
2016-05-18T09:52:03.601Z,20.91
2016-05-18T09:53:03.261Z,20.88
2016-05-18T09:54:03.403Z,20.83
2016-05-18T09:55:03.391Z,20.9
2016-05-18T09:56:03.378Z,20.87
2016-05-18T09:57:04.178Z,20.91
2016-05-18T09:58:03.508Z,20.88
2016-05-18T09:59:03.495Z,20.88
2016-05-18T10:00:03.482Z,20.81
2016-05-18T10:01:03.500Z,20.85
2016-05-18T10:02:03.472Z,20.81
2016-05-18T10:03:03.459Z,20.87
2016-05-18T10:04:03.430Z,20.81
2016-05-18T10:05:03.308Z,20.81
2016-05-18T10:06:03.405Z,20.83
2016-05-18T10:07:03.391Z,20.48
2016-05-18T10:08:03.379Z,20.22
2016-05-18T10:09:03.366Z,20.07
2016-05-18T10:10:03.352Z,20.15
2016-05-18T10:11:03.199Z,19.95
2016-05-18T10:12:03.327Z,19.95
2016-05-18T10:13:03.470Z,20.17
2016-05-18T10:14:03.145Z,20.2
2016-05-18T10:15:03.273Z,20.33
2016-05-18T10:16:03.290Z,20.35
2016-05-18T10:17:03.106Z,20.51
2016-05-18T10:18:03.249Z,20.6
2016-05-18T10:19:03.237Z,20.69
2016-05-18T10:20:03.223Z,20.63
2016-05-18T10:21:03.445Z,20.81
2016-05-18T10:22:02.901Z,20.72
2016-05-18T10:23:03.044Z,20.85
2016-05-18T10:24:03.453Z,20.82
2016-05-18T10:25:03.159Z,20.82
2016-05-18T10:26:03.145Z,20.93
2016-05-18T10:27:03.133Z,21
2016-05-18T10:28:02.964Z,20.96
2016-05-18T10:29:03.513Z,20.94
2016-05-18T10:30:03.110Z,20.85
2016-05-18T10:31:03.081Z,20.85
2016-05-18T10:32:03.084Z,20.83
2016-05-18T10:33:03.039Z,20.83
2016-05-18T10:34:03.230Z,20.82
2016-05-18T10:35:03.030Z,21
2016-05-18T10:36:02.955Z,20.91
2016-05-18T10:37:03.504Z,20.83
2016-05-18T10:38:02.834Z,20.87
2016-05-18T10:39:02.977Z,20.9
2016-05-18T10:40:02.949Z,20.9
2016-05-18T10:41:02.968Z,20.82
2016-05-18T10:42:02.939Z,20.93
2016-05-18T10:43:02.910Z,20.88
2016-05-18T10:44:03.116Z,20.9
2016-05-18T10:45:02.885Z,20.93
2016-05-18T10:46:02.871Z,20.85
2016-05-18T10:47:02.859Z,20.91
2016-05-18T10:48:02.862Z,20.82
2016-05-18T10:49:02.849Z,20.87
2016-05-18T10:50:02.820Z,20.83
2016-05-18T10:51:02.666Z,20.87
2016-05-18T10:52:03.154Z,20.94
2016-05-18T10:53:03.172Z,20.93
2016-05-18T10:54:02.784Z,20.91
2016-05-18T10:55:02.756Z,20.96
2016-05-18T10:56:02.758Z,20.93
2016-05-18T10:57:02.573Z,20.91
2016-05-18T10:58:02.404Z,21
2016-05-18T10:59:02.703Z,20.97
2016-05-18T11:00:03.097Z,20.96
2016-05-18T11:01:02.678Z,20.97
2016-05-18T11:02:02.665Z,21
2016-05-18T11:03:02.667Z,20.96
2016-05-18T11:04:02.655Z,21.05
2016-05-18T11:05:02.641Z,21.12
2016-05-18T11:06:02.628Z,21.05
2016-05-18T11:07:02.600Z,21.16
2016-05-18T11:08:03.150Z,21.08
2016-05-18T11:09:02.574Z,21.16
2016-05-18T11:10:02.560Z,21.13
2016-05-18T11:11:02.408Z,21.27
2016-05-18T11:12:02.394Z,21.26
2016-05-18T11:13:02.366Z,21.22
2016-05-18T11:14:02.525Z,21.26
2016-05-18T11:15:02.512Z,21.27
2016-05-18T11:16:03.248Z,21.4
2016-05-18T11:17:02.487Z,21.36
2016-05-18T11:18:02.457Z,21.34
2016-05-18T11:19:02.304Z,21.33
2016-05-18T11:20:02.431Z,21.45
2016-05-18T11:21:02.278Z,21.36
2016-05-18T11:22:02.109Z,21.37
2016-05-18T11:23:02.690Z,21.43
2016-05-18T11:24:02.973Z,21.42
2016-05-18T11:25:02.226Z,21.38
2016-05-18T11:26:02.354Z,21.28
2016-05-18T11:27:02.356Z,21.3
2016-05-18T11:28:02.188Z,21.37
2016-05-18T11:29:02.315Z,21.26
2016-05-18T11:30:02.302Z,21.33
2016-05-18T11:31:02.305Z,21.3
2016-05-18T11:32:02.277Z,21.26
2016-05-18T11:33:02.294Z,21.38
2016-05-18T11:34:02.250Z,21.4
2016-05-18T11:35:02.238Z,21.43
2016-05-18T11:36:02.256Z,21.37
2016-05-18T11:37:02.055Z,21.34
2016-05-18T11:38:01.949Z,21.3
2016-05-18T11:39:02.249Z,21.26
2016-05-18T11:40:02.266Z,21.36
2016-05-18T11:41:02.160Z,21.28
2016-05-18T11:42:01.866Z,21.31
2016-05-18T11:43:02.150Z,21.26
2016-05-18T11:44:02.137Z,21.26
2016-05-18T11:45:02.140Z,21.26
2016-05-18T11:46:02.095Z,21.4
2016-05-18T11:47:02.098Z,21.37
2016-05-18T11:48:02.429Z,21.42
2016-05-18T11:49:02.072Z,21.38
2016-05-18T11:50:02.044Z,21.37
2016-05-18T11:51:02.046Z,21.42
2016-05-18T11:52:02.017Z,21.38
2016-05-18T11:53:02.005Z,21.42
2016-05-18T11:54:01.992Z,21.37
2016-05-18T11:55:01.995Z,21.51
2016-05-18T11:56:02.481Z,21.53
2016-05-18T11:57:01.969Z,21.52
2016-05-18T11:58:01.956Z,21.55
2016-05-18T11:59:01.942Z,21.53
2016-05-18T12:00:01.930Z,21.55
2016-05-18T12:01:01.901Z,21.52
2016-05-18T12:02:01.903Z,21.53
2016-05-18T12:03:01.906Z,21.42
2016-05-18T12:04:01.878Z,21.33
2016-05-18T12:05:01.881Z,21.31
2016-05-18T12:06:01.852Z,21.3
2016-05-18T12:07:01.839Z,21.24
2016-05-18T12:08:01.827Z,21.19
2016-05-18T12:09:02.204Z,21.21
2016-05-18T12:10:01.800Z,21.21
2016-05-18T12:11:01.788Z,21.01
2016-05-18T12:12:01.822Z,20.91
2016-05-18T12:13:01.762Z,20.85
2016-05-18T12:14:01.749Z,20.79
2016-05-18T12:15:01.735Z,20.63
2016-05-18T12:16:01.723Z,20.57
2016-05-18T12:17:01.710Z,20.61
2016-05-18T12:18:01.696Z,20.63
2016-05-18T12:19:01.685Z,20.48
2016-05-18T12:20:05.109Z,20.58
2016-05-18T12:21:01.673Z,20.6
2016-05-18T12:22:01.646Z,20.61
2016-05-18T12:23:02.351Z,20.54
2016-05-18T12:24:01.619Z,20.56
2016-05-18T12:25:05.420Z,20.51
2016-05-18T12:26:01.593Z,20.48
2016-05-18T12:27:01.581Z,20.48
2016-05-18T12:28:01.583Z,20.5
2016-05-18T12:29:01.555Z,20.46
2016-05-18T12:30:04.745Z,20.46
2016-05-18T12:31:01.528Z,20.48
2016-05-18T12:32:01.531Z,20.48
2016-05-18T12:33:01.503Z,20.41
2016-05-18T12:34:01.333Z,20.48
2016-05-18T12:35:02.259Z,20.35
2016-05-18T12:36:01.464Z,20.38
2016-05-18T12:37:01.451Z,20.3
2016-05-18T12:38:02.236Z,20.38
2016-05-18T12:39:01.957Z,20.35
2016-05-18T12:40:04.052Z,20.53
2016-05-18T12:41:01.399Z,20.5
2016-05-18T12:42:01.386Z,20.46
2016-05-18T12:43:01.389Z,20.27
2016-05-18T12:44:01.360Z,20.34
2016-05-18T12:45:05.191Z,20.31
2016-05-18T12:46:01.335Z,20.2
2016-05-18T12:47:01.322Z,20.31
2016-05-18T12:48:01.152Z,20.31
2016-05-18T12:49:01.295Z,20.25
2016-05-18T12:50:05.830Z,20.34
2016-05-18T12:51:01.270Z,20.34
2016-05-18T12:52:01.117Z,20.34
2016-05-18T12:53:01.573Z,20.31
2016-05-18T12:54:01.231Z,20.2
2016-05-18T12:55:05.671Z,20.22
2016-05-18T12:56:01.206Z,20.17